Time;durP1;ratioP1;P1;durP2;ratioP2;P2;SDS_P1;SDS_P2;PMS_P1;PMS_P2;Temp;Humidity;BMP_temperature;BMP_pressure;BME280_temperature;BME280_humidity;BME280_pressure;Samples;Min_cycle;Max_cycle;Signal;HPM_P1;HPM_P2
2022/11/12 00:01:03;;;;;;;4.28;2.30;;;2.90;99.90;;;;;;5076028;28;20103;-68
2022/11/12 00:03:30;;;;;;;5.18;2.40;;;2.80;99.90;;;;;;5075779;28;20056;-68
2022/11/12 00:05:57;;;;;;;7.88;2.45;;;2.70;99.90;;;;;;5058235;28;20029;-67
2022/11/12 00:08:25;;;;;;;6.13;2.75;;;2.70;99.90;;;;;;5058257;28;20032;-68
2022/11/12 00:10:52;;;;;;;9.45;2.78;;;2.60;99.90;;;;;;5058209;28;20325;-68
2022/11/12 00:13:20;;;;;;;7.70;3.10;;;2.50;99.90;;;;;;5074924;28;20021;-68
2022/11/12 00:15:47;;;;;;;5.63;2.60;;;2.50;99.90;;;;;;5076757;28;20300;-68
2022/11/12 00:18:15;;;;;;;7.65;3.00;;;2.50;99.90;;;;;;5058121;28;20513;-67
2022/11/12 00:20:43;;;;;;;8.05;3.05;;;2.40;99.90;;;;;;5074835;28;20431;-67
2022/11/12 00:23:10;;;;;;;9.82;3.60;;;2.40;99.90;;;;;;5076077;28;20328;-67
2022/11/12 00:25:38;;;;;;;6.38;3.13;;;2.50;99.90;;;;;;5058009;28;20021;-68
2022/11/12 00:28:10;;;;;;;5.72;2.95;;;2.50;99.90;;;;;;5058174;28;20060;-67
2022/11/12 00:30:40;;;;;;;6.75;3.40;;;2.50;99.90;;;;;;5078954;28;20024;-67
2022/11/12 00:33:08;;;;;;;5.07;2.50;;;2.40;99.90;;;;;;5079413;28;20320;-68
2022/11/12 00:35:35;;;;;;;6.70;2.78;;;2.40;99.90;;;;;;5079301;28;20101;-68
2022/11/12 00:38:03;;;;;;;5.05;2.65;;;2.40;99.90;;;;;;5079379;28;20025;-68
2022/11/12 00:40:30;;;;;;;5.18;2.15;;;2.40;99.90;;;;;;5079812;28;20059;-68
2022/11/12 00:42:57;;;;;;;4.60;2.72;;;2.30;99.90;;;;;;5080014;28;20020;-67
2022/11/12 00:45:25;;;;;;;6.82;3.80;;;2.30;99.90;;;;;;5079682;28;20021;-68
2022/11/12 00:47:56;;;;;;;6.25;2.78;;;2.20;99.90;;;;;;5079128;28;20320;-67
2022/11/12 00:50:25;;;;;;;7.88;3.10;;;2.20;99.90;;;;;;5079023;28;20466;-67
2022/11/12 00:52:53;;;;;;;9.82;2.78;;;2.20;99.90;;;;;;5079143;28;20370;-67
2022/11/12 00:55:20;;;;;;;5.97;2.67;;;2.20;99.90;;;;;;5061706;28;20320;-68
2022/11/12 00:57:48;;;;;;;7.13;3.60;;;2.20;99.90;;;;;;5079042;28;20021;-68
2022/11/12 01:00:18;;;;;;;4.55;2.35;;;2.10;99.90;;;;;;5061870;28;20398;-68
2022/11/12 01:02:46;;;;;;;6.05;2.97;;;2.10;99.90;;;;;;5078707;28;20052;-67
2022/11/12 01:05:13;;;;;;;9.63;3.05;;;2.10;99.90;;;;;;5079053;28;20023;-68
2022/11/12 01:07:41;;;;;;;5.47;2.97;;;2.10;99.90;;;;;;5078847;28;20060;-67
2022/11/12 01:10:09;;;;;;;7.88;3.05;;;2.00;99.90;;;;;;5078675;28;20017;-68
2022/11/12 01:12:37;;;;;;;6.57;3.60;;;2.00;99.90;;;;;;5078941;28;20095;-68
2022/11/12 01:15:05;;;;;;;6.57;3.75;;;2.00;99.90;;;;;;5079188;28;20024;-68
2022/11/12 01:17:33;;;;;;;8.23;2.80;;;2.00;99.90;;;;;;5078467;28;20371;-68
2022/11/12 01:20:00;;;;;;;9.68;3.60;;;2.00;99.90;;;;;;5078873;28;20310;-67
2022/11/12 01:22:28;;;;;;;7.75;3.00;;;2.10;99.90;;;;;;5060807;28;20035;-68
2022/11/12 01:24:55;;;;;;;8.05;3.55;;;2.00;99.90;;;;;;5060709;28;20032;-67
2022/11/12 01:27:23;;;;;;;7.80;3.65;;;2.10;99.90;;;;;;5078853;28;20404;-67
2022/11/12 01:29:50;;;;;;;6.18;2.95;;;2.10;99.90;;;;;;5078368;28;20025;-67
2022/11/12 01:32:18;;;;;;;4.82;2.60;;;2.10;99.90;;;;;;5078587;28;20103;-67
2022/11/12 01:34:45;;;;;;;11.82;3.55;;;2.10;99.90;;;;;;5078626;28;20078;-67
2022/11/12 01:37:12;;;;;;;6.90;3.42;;;2.10;99.90;;;;;;5078944;28;20078;-68
2022/11/12 01:39:40;;;;;;;7.40;2.83;;;2.00;99.90;;;;;;5061141;28;20021;-68
2022/11/12 01:42:07;;;;;;;7.45;3.75;;;2.00;99.90;;;;;;5077458;28;20059;-67
2022/11/12 01:44:38;;;;;;;7.25;3.22;;;1.90;99.90;;;;;;5077939;28;20032;-67
2022/11/12 01:47:25;;;;;;;7.53;3.15;;;1.90;99.90;;;;;;5077982;28;20021;-67
2022/11/12 01:50:15;;;;;;;4.78;2.75;;;1.90;99.90;;;;;;5078277;28;20051;-67
2022/11/12 01:52:52;;;;;;;8.57;3.47;;;1.90;99.90;;;;;;5077912;28;20095;-67
2022/11/12 01:55:24;;;;;;;6.18;2.83;;;1.90;99.90;;;;;;5060088;28;20421;-67
2022/11/12 01:58:05;;;;;;;8.90;3.35;;;1.90;99.90;;;;;;5077883;28;20032;-67
2022/11/12 02:00:33;;;;;;;6.85;3.20;;;1.90;99.90;;;;;;5078294;28;20028;-67
2022/11/12 02:03:06;;;;;;;8.65;3.22;;;1.90;99.90;;;;;;5077583;28;20056;-68
2022/11/12 02:05:36;;;;;;;5.45;3.05;;;1.90;99.90;;;;;;5077498;28;20415;-68
2022/11/12 02:08:06;;;;;;;7.35;3.28;;;1.80;99.90;;;;;;5060106;28;20021;-68
2022/11/12 02:10:34;;;;;;;7.00;3.05;;;1.90;99.90;;;;;;5078113;28;20044;-67
2022/11/12 02:15:48;;;;;;;8.63;3.47;;;1.80;99.90;;;;;;5078068;28;20316;-68
2022/11/12 02:18:16;;;;;;;4.78;3.03;;;1.80;99.90;;;;;;5077535;28;20111;-68
2022/11/12 02:20:44;;;;;;;9.35;2.83;;;1.80;99.90;;;;;;5077405;28;20412;-68
2022/11/12 02:23:11;;;;;;;7.85;3.05;;;1.80;99.90;;;;;;5077255;28;20036;-68
2022/11/12 02:25:38;;;;;;;5.18;3.15;;;1.80;99.90;;;;;;5077221;28;20020;-68
2022/11/12 02:28:07;;;;;;;5.53;2.95;;;1.90;99.90;;;;;;5060249;28;20024;-67
2022/11/12 02:30:42;;;;;;;7.03;3.35;;;2.00;99.90;;;;;;5077429;28;20312;-67
2022/11/12 02:33:09;;;;;;;6.70;3.27;;;2.00;99.90;;;;;;5059370;28;20078;-68
2022/11/12 02:35:37;;;;;;;7.43;3.55;;;2.00;99.90;;;;;;5077063;28;20337;-67
2022/11/12 02:38:05;;;;;;;9.75;3.17;;;2.00;99.90;;;;;;5077257;28;20028;-68
2022/11/12 02:40:33;;;;;;;5.97;3.50;;;2.00;99.90;;;;;;5076995;28;20099;-68
2022/11/12 02:43:00;;;;;;;7.32;3.05;;;2.00;99.90;;;;;;5077019;28;20032;-67
2022/11/12 02:45:29;;;;;;;6.65;3.03;;;2.00;99.90;;;;;;5077429;28;20024;-67
2022/11/12 02:47:56;;;;;;;5.50;2.70;;;1.90;99.90;;;;;;5059488;28;20455;-67
2022/11/12 02:50:23;;;;;;;6.15;3.60;;;1.90;99.90;;;;;;5077388;28;20024;-68
2022/11/12 02:52:51;;;;;;;5.95;2.90;;;1.80;99.90;;;;;;5077396;28;20020;-68
2022/11/12 02:55:18;;;;;;;4.65;2.75;;;1.80;99.90;;;;;;5077353;28;20020;-67
2022/11/12 02:57:45;;;;;;;5.55;3.38;;;1.80;99.90;;;;;;5059848;28;20025;-67
2022/11/12 03:00:13;;;;;;;11.93;3.08;;;1.70;99.90;;;;;;5077287;28;20028;-67
2022/11/12 03:02:57;;;;;;;8.57;3.17;;;1.70;99.90;;;;;;5076348;28;20398;-67
2022/11/12 03:05:27;;;;;;;9.30;3.28;;;1.70;99.90;;;;;;5076436;28;20031;-67
2022/11/12 03:08:03;;;;;;;5.97;3.40;;;1.70;99.90;;;;;;5076846;28;20028;-68
2022/11/12 03:10:31;;;;;;;7.65;3.17;;;1.70;99.90;;;;;;5076919;28;20357;-68
2022/11/12 03:13:00;;;;;;;5.53;2.92;;;1.70;99.90;;;;;;5076640;28;20424;-68
2022/11/12 03:15:30;;;;;;;9.57;3.38;;;1.60;99.90;;;;;;5077082;28;20031;-67
2022/11/12 03:17:58;;;;;;;10.02;3.53;;;1.60;99.90;;;;;;5076656;28;20024;-67
2022/11/12 03:20:27;;;;;;;11.35;3.75;;;1.60;99.90;;;;;;5076434;28;20025;-67
2022/11/12 03:22:59;;;;;;;10.35;3.35;;;1.70;99.90;;;;;;5076505;28;20025;-68
2022/11/12 03:25:28;;;;;;;10.30;5.53;;;1.70;99.90;;;;;;5076392;28;20436;-67
2022/11/12 03:28:04;;;;;;;13.35;3.58;;;1.80;99.90;;;;;;5076604;28;20100;-68
2022/11/12 03:30:35;;;;;;;6.88;3.55;;;1.80;99.90;;;;;;5076430;28;20025;-67
2022/11/12 03:33:02;;;;;;;11.55;3.90;;;1.70;99.90;;;;;;5077124;28;20343;-67
2022/11/12 03:35:30;;;;;;;8.07;3.35;;;1.70;99.90;;;;;;5076286;28;20032;-67
2022/11/12 03:37:59;;;;;;;9.98;4.00;;;1.60;99.90;;;;;;5076426;28;20024;-68
2022/11/12 03:40:26;;;;;;;6.00;3.40;;;1.70;99.90;;;;;;5076308;28;20029;-68
2022/11/12 03:42:54;;;;;;;9.07;4.53;;;1.70;99.90;;;;;;5076551;28;20028;-67
2022/11/12 03:45:23;;;;;;;14.15;4.07;;;1.70;99.90;;;;;;5058401;28;20074;-68
2022/11/12 03:47:53;;;;;;;9.57;4.38;;;1.80;99.90;;;;;;5076184;28;20039;-67
2022/11/12 03:50:24;;;;;;;8.82;3.75;;;1.80;99.90;;;;;;5058398;28;20067;-67
2022/11/12 03:52:55;;;;;;;9.02;3.75;;;1.80;99.90;;;;;;5058443;28;20028;-68
2022/11/12 03:55:25;;;;;;;11.93;4.00;;;1.90;99.90;;;;;;5076436;28;20028;-67
2022/11/12 03:57:53;;;;;;;11.75;4.03;;;1.90;99.90;;;;;;5076207;28;20024;-67
2022/11/12 04:00:22;;;;;;;14.90;4.63;;;1.90;99.90;;;;;;5076165;28;20024;-68
2022/11/12 04:02:49;;;;;;;7.95;3.95;;;1.80;99.90;;;;;;5076095;28;20057;-67
2022/11/12 04:10:57;;;;;;;9.40;3.95;;;1.70;99.90;;;;;;5079900;28;20048;-67
2022/11/12 04:13:28;;;;;;;8.98;4.75;;;1.70;99.90;;;;;;5062332;28;20025;-68
2022/11/12 04:22:09;;;;;;;13.07;3.60;;;1.60;99.90;;;;;;5080435;28;20086;-68
2022/11/12 04:27:27;;;;;;;14.35;5.00;;;1.50;99.90;;;;;;5080141;28;20024;-68
2022/11/12 04:30:28;;;;;;;10.77;4.10;;;1.50;99.90;;;;;;5079668;28;20052;-68
2022/11/12 04:32:53;;;;;;;8.98;3.78;;;1.50;99.90;;;;;;5061733;28;20029;-67
2022/11/12 04:35:22;;;;;;;12.80;3.90;;;1.40;99.90;;;;;;5079401;28;20079;-68
2022/11/12 04:37:50;;;;;;;9.13;4.03;;;1.40;99.90;;;;;;5079382;28;20025;-68
2022/11/12 04:46:03;;;;;;;8.73;4.93;;;1.40;99.90;;;;;;5079796;28;20397;-68
2022/11/12 04:48:31;;;;;;;9.57;4.45;;;1.40;99.90;;;;;;5079606;28;20028;-68
2022/11/12 04:52:03;;;;;;;12.43;4.55;;;1.30;99.90;;;;;;5079138;28;20013;-68
2022/11/12 04:53:50;;;;;;;8.55;3.63;;;1.30;99.90;;;;;;5078840;28;20032;-67
2022/11/12 04:56:18;;;;;;;11.57;4.10;;;1.30;99.90;;;;;;5079008;28;20416;-68
2022/11/12 04:58:45;;;;;;;12.57;4.15;;;1.30;99.90;;;;;;5079573;28;20035;-68
2022/11/12 05:01:12;;;;;;;18.08;5.10;;;1.30;99.90;;;;;;5079402;28;20405;-67
2022/11/12 05:03:39;;;;;;;10.93;4.32;;;1.20;99.90;;;;;;5078502;28;20131;-68
2022/11/12 05:08:52;;;;;;;10.43;4.40;;;1.30;99.90;;;;;;5079038;28;20023;-68
2022/11/12 05:11:19;;;;;;;17.20;4.97;;;1.30;99.90;;;;;;5079305;28;20017;-68
2022/11/12 05:13:47;;;;;;;10.32;4.72;;;1.30;99.90;;;;;;5079439;28;20051;-67
2022/11/12 05:16:14;;;;;;;13.48;5.47;;;1.20;99.90;;;;;;5077987;28;20035;-67
2022/11/12 05:18:41;;;;;;;13.00;5.28;;;1.20;99.90;;;;;;5078572;28;20100;-68
2022/11/12 05:23:54;;;;;;;11.65;5.25;;;1.20;99.90;;;;;;5078884;28;20031;-67
2022/11/12 05:26:21;;;;;;;10.30;5.13;;;1.20;99.90;;;;;;5078459;28;20025;-67
2022/11/12 05:28:49;;;;;;;12.00;5.22;;;1.20;99.90;;;;;;5078438;28;20032;-68
2022/11/12 05:31:16;;;;;;;11.00;4.97;;;1.20;99.90;;;;;;5078886;28;20024;-68
2022/11/12 05:33:44;;;;;;;9.27;4.20;;;1.10;99.90;;;;;;5078484;28;20047;-68
2022/11/12 05:36:11;;;;;;;15.52;4.68;;;1.10;99.90;;;;;;5078195;28;20438;-68
2022/11/12 05:38:39;;;;;;;8.85;4.47;;;1.10;99.90;;;;;;5078569;28;20108;-68
2022/11/12 05:41:06;;;;;;;15.63;4.97;;;1.00;99.90;;;;;;5078714;28;20016;-67
2022/11/12 05:43:33;;;;;;;10.90;4.75;;;1.00;99.90;;;;;;5078831;28;20020;-68
2022/11/12 05:46:01;;;;;;;10.82;4.93;;;1.00;99.90;;;;;;5060353;28;20111;-68
2022/11/12 05:48:28;;;;;;;12.77;4.90;;;0.90;99.90;;;;;;5077973;28;20067;-68
2022/11/12 05:50:55;;;;;;;10.52;4.55;;;0.90;99.90;;;;;;5078032;28;20027;-68
2022/11/12 05:53:23;;;;;;;11.70;4.32;;;0.90;99.90;;;;;;5078672;28;20297;-68
2022/11/12 05:55:50;;;;;;;15.25;5.53;;;0.90;99.90;;;;;;5078454;28;20025;-67
2022/11/12 05:58:17;;;;;;;10.07;4.95;;;0.90;99.90;;;;;;5078171;28;20021;-67
2022/11/12 06:00:44;;;;;;;13.95;5.03;;;0.90;99.90;;;;;;5077758;28;20027;-68
2022/11/12 06:03:12;;;;;;;12.52;5.10;;;0.80;99.90;;;;;;5077699;28;20044;-68
2022/11/12 06:05:39;;;;;;;10.63;4.65;;;0.80;99.90;;;;;;5078142;28;20078;-68
2022/11/12 06:08:07;;;;;;;11.90;5.38;;;0.80;99.90;;;;;;5059947;28;20021;-67
2022/11/12 06:10:34;;;;;;;10.48;5.25;;;0.80;99.90;;;;;;5077565;28;20016;-68
2022/11/12 06:13:02;;;;;;;14.23;5.18;;;0.80;99.90;;;;;;5077721;28;20414;-68
2022/11/12 06:15:29;;;;;;;10.88;4.78;;;0.80;99.90;;;;;;5078034;28;20035;-68
2022/11/12 06:17:56;;;;;;;12.00;4.57;;;0.70;99.90;;;;;;5060366;28;20108;-67
2022/11/12 06:20:24;;;;;;;15.00;5.50;;;0.70;99.90;;;;;;5077304;28;20038;-70
2022/11/12 06:22:51;;;;;;;10.95;4.90;;;0.70;99.90;;;;;;5077886;28;20020;-67
2022/11/12 06:25:18;;;;;;;28.35;9.95;;;0.70;99.90;;;;;;5077840;28;20078;-74
2022/11/12 06:27:46;;;;;;;16.75;7.88;;;0.70;99.90;;;;;;5077715;28;20016;-68
2022/11/12 06:30:13;;;;;;;26.67;9.60;;;0.70;99.90;;;;;;5059397;28;20070;-68
2022/11/12 06:32:41;;;;;;;15.23;7.20;;;0.80;99.90;;;;;;5077294;28;20025;-68
2022/11/12 06:35:09;;;;;;;13.07;5.40;;;0.80;99.90;;;;;;5077637;28;20024;-68
2022/11/12 06:37:36;;;;;;;12.98;6.18;;;0.90;99.90;;;;;;5077750;28;20361;-70
2022/11/12 06:40:04;;;;;;;13.88;6.28;;;1.00;99.90;;;;;;5076997;28;20327;-71
2022/11/12 06:42:31;;;;;;;14.35;5.80;;;1.10;99.90;;;;;;5077581;28;20024;-72
2022/11/12 06:44:59;;;;;;;16.52;6.28;;;1.20;99.90;;;;;;5076849;28;20016;-72
2022/11/12 06:47:26;;;;;;;14.50;6.55;;;1.30;99.90;;;;;;5059287;28;20025;-71
2022/11/12 06:49:53;;;;;;;17.77;6.20;;;1.40;99.90;;;;;;5076917;28;20025;-72
2022/11/12 06:52:20;;;;;;;14.43;6.20;;;1.40;99.90;;;;;;5077422;28;20020;-74
2022/11/12 06:54:48;;;;;;;17.13;6.93;;;1.50;99.90;;;;;;5076805;28;20021;-74
2022/11/12 06:57:15;;;;;;;16.02;7.30;;;1.50;99.90;;;;;;5077000;28;20025;-74
2022/11/12 06:59:43;;;;;;;20.15;8.13;;;1.60;99.90;;;;;;5077012;28;20021;-73
2022/11/12 07:02:12;;;;;;;20.58;7.88;;;1.70;99.90;;;;;;5076690;28;20056;-72
2022/11/12 07:04:39;;;;;;;19.60;7.35;;;1.70;99.90;;;;;;5076524;28;20107;-75
2022/11/12 07:07:06;;;;;;;16.67;7.60;;;1.80;99.90;;;;;;5077458;28;20024;-72
2022/11/12 07:09:34;;;;;;;15.93;6.30;;;1.70;99.90;;;;;;5077200;28;20051;-76
2022/11/12 07:12:02;;;;;;;17.70;6.35;;;1.70;99.90;;;;;;5076930;28;20405;-77
2022/11/12 07:14:29;;;;;;;19.48;6.00;;;1.70;99.90;;;;;;5058822;28;20421;-75
2022/11/12 07:16:58;;;;;;;15.32;7.55;;;1.70;99.90;;;;;;5076706;28;20463;-76
2022/11/12 07:19:25;;;;;;;15.57;7.00;;;1.70;99.90;;;;;;5076785;28;20035;-77
2022/11/12 07:21:52;;;;;;;16.92;6.43;;;1.60;99.90;;;;;;5076832;28;20074;-75
2022/11/12 07:24:20;;;;;;;13.98;6.13;;;1.60;99.90;;;;;;5076991;28;20413;-74
2022/11/12 07:26:47;;;;;;;17.60;6.32;;;1.60;99.90;;;;;;5076947;28;20027;-74
2022/11/12 07:29:14;;;;;;;12.55;6.18;;;1.60;99.90;;;;;;5076469;28;20052;-74
2022/11/12 07:31:41;;;;;;;11.60;6.35;;;1.60;99.90;;;;;;5075220;28;20371;-76
2022/11/12 07:34:09;;;;;;;15.55;6.85;;;1.70;99.90;;;;;;5076388;28;20091;-75
2022/11/12 07:36:36;;;;;;;12.82;5.60;;;1.70;99.90;;;;;;5058763;28;20050;-76
2022/11/12 07:39:04;;;;;;;15.18;6.47;;;1.70;99.90;;;;;;5077644;28;20024;-72
2022/11/12 07:41:31;;;;;;;16.45;7.30;;;1.70;99.90;;;;;;5080488;28;20025;-74
2022/11/12 07:43:58;;;;;;;17.85;5.70;;;1.70;99.90;;;;;;5080416;28;20324;-74
2022/11/12 07:46:26;;;;;;;13.85;6.80;;;1.70;99.90;;;;;;5080334;28;20059;-76
2022/11/12 07:48:55;;;;;;;15.98;6.45;;;1.80;99.90;;;;;;5080812;28;20024;-77
2022/11/12 07:51:25;;;;;;;14.52;6.45;;;1.90;99.90;;;;;;5080297;28;20025;-74
2022/11/12 07:53:55;;;;;;;14.20;5.93;;;1.90;99.90;;;;;;5080204;28;20166;-74
2022/11/12 07:56:24;;;;;;;15.35;6.40;;;2.00;99.90;;;;;;5080182;28;20020;-74
2022/11/12 07:58:51;;;;;;;21.27;5.82;;;2.10;99.90;;;;;;5080362;28;20021;-73
2022/11/12 08:01:39;;;;;;;15.60;6.63;;;2.10;99.90;;;;;;5080045;28;20031;-71
2022/11/12 08:04:11;;;;;;;14.52;6.45;;;2.20;99.90;;;;;;5079982;28;20123;-72
2022/11/12 08:06:38;;;;;;;16.45;7.18;;;2.30;99.90;;;;;;5080648;28;20024;-78
2022/11/12 08:09:07;;;;;;;18.13;7.35;;;2.40;99.90;;;;;;5080003;28;20029;-71
2022/11/12 08:11:35;;;;;;;15.38;6.80;;;2.50;99.90;;;;;;5080149;28;20027;-75
2022/11/12 08:14:03;;;;;;;12.93;6.82;;;2.60;99.90;;;;;;5078769;28;20438;-72
2022/11/12 08:16:30;;;;;;;11.27;6.13;;;2.70;99.90;;;;;;5080031;28;20070;-73
2022/11/12 08:18:58;;;;;;;12.05;6.10;;;2.80;99.90;;;;;;5079889;28;20020;-74
2022/11/12 08:21:26;;;;;;;11.90;5.40;;;2.90;99.90;;;;;;5079994;28;20033;-72
2022/11/12 08:23:54;;;;;;;15.50;5.45;;;2.90;99.90;;;;;;5080115;28;20021;-71
2022/11/12 08:26:21;;;;;;;10.95;5.60;;;3.00;99.90;;;;;;5079591;28;20016;-72
2022/11/12 08:28:48;;;;;;;12.48;5.95;;;3.10;99.90;;;;;;5080292;28;20070;-72
2022/11/12 08:31:20;;;;;;;10.55;5.13;;;3.10;99.90;;;;;;5061837;28;20016;-74
2022/11/12 08:33:48;;;;;;;17.02;6.78;;;3.20;99.90;;;;;;5079806;28;20039;-71
2022/11/12 08:36:16;;;;;;;15.10;7.20;;;3.30;99.90;;;;;;5079454;28;20016;-71
2022/11/12 08:38:44;;;;;;;20.13;7.05;;;3.40;99.90;;;;;;5080142;28;20031;-71
2022/11/12 08:41:13;;;;;;;16.52;6.28;;;3.50;99.90;;;;;;5079913;28;20099;-71
2022/11/12 08:43:41;;;;;;;23.35;6.70;;;3.60;99.90;;;;;;5079204;28;20332;-71
2022/11/12 08:46:09;;;;;;;18.27;7.28;;;3.60;99.90;;;;;;5061486;28;20025;-71
2022/11/12 08:48:38;;;;;;;21.35;7.35;;;3.70;99.90;;;;;;5061642;28;20067;-71
2022/11/12 08:51:06;;;;;;;16.13;7.22;;;3.80;99.90;;;;;;5078974;28;20028;-71
2022/11/12 08:53:34;;;;;;;12.20;7.03;;;3.90;99.90;;;;;;5079145;28;20012;-71
2022/11/12 08:56:02;;;;;;;15.82;7.50;;;4.00;99.90;;;;;;5079048;28;20021;-70
2022/11/12 08:58:29;;;;;;;25.50;7.63;;;4.10;99.90;;;;;;5078973;28;20031;-72
2022/11/12 09:01:03;;;;;;;19.17;7.80;;;4.20;99.90;;;;;;5079070;28;20412;-73
2022/11/12 09:03:31;;;;;;;22.73;9.90;;;4.30;99.90;;;;;;5078812;28;20055;-72
2022/11/12 09:06:03;;;;;;;22.08;7.85;;;4.40;99.90;;;;;;5078855;28;20105;-72
2022/11/12 09:08:34;;;;;;;19.42;8.35;;;4.50;99.90;;;;;;5079463;28;20024;-72
2022/11/12 09:11:01;;;;;;;16.70;7.75;;;4.60;99.90;;;;;;5078835;28;20029;-73
2022/11/12 09:13:29;;;;;;;15.75;7.75;;;4.60;99.90;;;;;;5078776;28;20107;-72
2022/11/12 09:16:01;;;;;;;39.92;12.27;;;4.80;99.90;;;;;;5078727;28;20025;-73
2022/11/12 09:18:32;;;;;;;22.92;9.95;;;4.80;99.90;;;;;;5078730;28;20096;-72
2022/11/12 09:21:02;;;;;;;25.35;10.05;;;5.00;99.90;;;;;;5079170;28;20103;-72
2022/11/12 09:23:29;;;;;;;20.10;9.25;;;5.10;99.90;;;;;;5060809;28;20027;-71
2022/11/12 09:25:57;;;;;;;17.63;8.60;;;5.30;99.90;;;;;;5078465;28;20083;-71
2022/11/12 09:28:25;;;;;;;18.10;8.68;;;5.40;99.90;;;;;;5061615;28;20048;-71
2022/11/12 09:30:53;;;;;;;21.05;9.88;;;5.70;99.90;;;;;;5060627;28;20021;-71
2022/11/12 09:33:26;;;;;;;16.35;9.15;;;5.80;99.90;;;;;;5078424;28;20032;-71
2022/11/12 09:35:55;;;;;;;17.80;8.73;;;6.00;99.90;;;;;;5078381;28;20021;-71
2022/11/12 09:38:22;;;;;;;21.25;9.27;;;6.20;99.90;;;;;;5060708;28;20024;-71
2022/11/12 09:41:05;;;;;;;14.50;6.55;;;6.30;99.90;;;;;;5078512;28;20028;-71
2022/11/12 09:43:40;;;;;;;12.73;7.63;;;6.60;99.90;;;;;;5078739;28;20416;-74
2022/11/12 09:46:38;;;;;;;10.52;5.55;;;6.80;99.90;;;;;;5076969;28;20028;-76
2022/11/12 09:49:16;;;;;;;9.85;5.40;;;7.00;99.90;;;;;;5078349;28;20017;-73
2022/11/12 09:51:50;;;;;;;12.63;6.10;;;7.20;99.90;;;;;;5078049;28;20428;-72
2022/11/12 09:54:24;;;;;;;10.57;5.30;;;7.40;99.90;;;;;;5077986;28;20039;-77
2022/11/12 09:56:53;;;;;;;9.25;4.88;;;7.60;99.90;;;;;;5078033;28;20021;-72
2022/11/12 09:59:23;;;;;;;8.02;4.47;;;7.70;99.90;;;;;;5078165;28;20021;-75
2022/11/12 10:01:53;;;;;;;9.45;4.57;;;8.00;99.90;;;;;;5077226;28;20416;-72
2022/11/12 10:04:41;;;;;;;7.43;4.40;;;8.10;99.90;;;;;;5077906;28;20082;-75
2022/11/12 10:07:43;;;;;;;8.23;5.35;;;8.30;99.90;;;;;;5078054;28;20325;-75
2022/11/12 10:10:15;;;;;;;7.30;4.20;;;8.50;99.90;;;;;;5077847;28;20025;-75
2022/11/12 10:12:54;;;;;;;8.95;3.58;;;8.70;99.90;;;;;;5077882;28;20025;-74
2022/11/12 10:18:49;;;;;;;9.70;3.85;;;9.00;99.90;;;;;;5077639;28;20027;-76
2022/11/12 10:21:44;;;;;;;9.35;5.70;;;9.10;99.90;;;;;;5076328;28;20078;-73
2022/11/12 10:24:12;;;;;;;10.48;6.05;;;9.20;99.90;;;;;;5059552;28;20446;-74
2022/11/12 10:26:40;;;;;;;12.85;6.05;;;9.20;99.90;;;;;;5077517;28;20493;-71
2022/11/12 10:29:13;;;;;;;9.57;5.60;;;9.10;99.90;;;;;;5077829;28;20021;-72
2022/11/12 10:31:40;;;;;;;12.35;6.30;;;9.10;99.90;;;;;;5077746;28;20349;-74
2022/11/12 10:34:15;;;;;;;9.55;5.57;;;9.00;99.90;;;;;;5077423;28;20103;-73
2022/11/12 10:36:52;;;;;;;10.87;6.30;;;9.00;99.90;;;;;;5077434;28;20020;-73
2022/11/12 10:39:52;;;;;;;10.25;6.47;;;9.00;99.90;;;;;;5077090;28;20255;-76
2022/11/12 10:42:21;;;;;;;7.95;5.20;;;8.90;99.90;;;;;;5044488;28;20029;-74
2022/11/12 10:44:50;;;;;;;9.80;5.25;;;8.90;99.90;;;;;;5077463;28;20027;-74
2022/11/12 10:47:41;;;;;;;8.32;4.85;;;8.90;99.90;;;;;;5076856;28;20078;-75
2022/11/12 10:50:09;;;;;;;12.48;5.18;;;8.90;99.90;;;;;;5076923;28;20029;-75
2022/11/12 10:52:36;;;;;;;14.02;5.22;;;8.90;99.90;;;;;;5077340;28;20096;-76
2022/11/12 10:55:21;;;;;;;9.80;6.00;;;8.90;99.90;;;;;;5077114;28;20025;-75
2022/11/12 10:58:06;;;;;;;10.93;5.72;;;8.90;99.90;;;;;;5076857;28;20016;-75
2022/11/12 11:00:34;;;;;;;8.85;5.45;;;8.90;99.90;;;;;;5076793;28;20365;-75
2022/11/12 11:03:17;;;;;;;11.88;6.38;;;8.90;99.90;;;;;;5076886;28;20040;-75
2022/11/12 11:06:04;;;;;;;14.05;5.53;;;9.00;99.90;;;;;;5076594;28;20091;-75
2022/11/12 11:08:39;;;;;;;9.88;5.20;;;9.10;99.90;;;;;;5076711;28;20073;-75
2022/11/12 11:11:29;;;;;;;13.25;6.25;;;9.20;99.90;;;;;;5076977;28;20401;-76
2022/11/12 11:14:18;;;;;;;11.68;6.10;;;9.20;99.90;;;;;;5058363;28;20028;-72
2022/11/12 11:16:51;;;;;;;11.25;4.72;;;9.30;99.90;;;;;;5076742;28;20355;-74
2022/11/12 11:19:19;;;;;;;9.23;6.13;;;9.40;99.90;;;;;;5076583;28;20436;-74
2022/11/12 11:21:50;;;;;;;9.18;5.43;;;9.50;99.90;;;;;;5077029;28;20036;-71
2022/11/12 11:24:44;;;;;;;10.50;5.43;;;9.60;99.90;;;;;;5076695;28;20025;-71
2022/11/12 11:27:25;;;;;;;9.57;5.20;;;9.70;99.90;;;;;;5076859;28;20071;-75
2022/11/12 11:30:05;;;;;;;11.25;5.25;;;9.70;99.90;;;;;;5058605;28;20032;-74
2022/11/12 11:32:51;;;;;;;12.82;5.65;;;9.80;99.90;;;;;;5076838;28;20050;-74
2022/11/12 11:35:48;;;;;;;11.27;5.30;;;9.90;99.90;;;;;;5076425;28;20027;-75
2022/11/12 11:38:47;;;;;;;9.52;4.90;;;10.10;99.90;;;;;;5076742;28;20044;-75
2022/11/12 11:41:35;;;;;;;17.52;6.25;;;10.20;99.90;;;;;;5076366;28;20052;-72
2022/11/12 11:44:35;;;;;;;33.65;8.18;;;10.30;99.90;;;;;;5076218;28;20020;-71
2022/11/12 11:47:16;;;;;;;24.38;7.95;;;10.40;99.90;;;;;;5076241;28;20025;-72
2022/11/12 11:49:59;;;;;;;38.78;8.27;;;10.40;99.90;;;;;;5076806;28;20029;-72
2022/11/12 11:52:36;;;;;;;9.35;5.63;;;10.50;99.90;;;;;;5076767;28;20028;-73
2022/11/12 11:55:28;;;;;;;12.52;6.07;;;10.50;99.90;;;;;;5076764;28;20024;-75
2022/11/12 11:58:05;;;;;;;28.70;6.72;;;10.60;99.90;;;;;;5076802;28;20055;-72
2022/11/12 12:01:00;;;;;;;13.70;6.07;;;10.60;99.90;;;;;;5076099;28;20107;-72
2022/11/12 12:03:49;;;;;;;14.65;6.65;;;10.70;99.90;;;;;;5071630;28;20045;-71
2022/11/12 12:06:17;;;;;;;12.48;5.80;;;10.70;99.90;;;;;;5055085;28;20021;-71
2022/11/12 12:09:17;;;;;;;16.33;5.85;;;10.80;99.90;;;;;;5056634;28;20018;-72
2022/11/12 12:12:15;;;;;;;17.52;6.75;;;10.80;99.90;;;;;;5056201;28;20098;-72
2022/11/12 12:15:00;;;;;;;14.70;6.97;;;10.90;99.90;;;;;;5056276;28;20360;-77
2022/11/12 12:17:43;;;;;;;12.38;6.55;;;11.00;99.90;;;;;;5056013;28;20028;-74
2022/11/12 12:20:16;;;;;;;14.00;6.85;;;11.10;99.90;;;;;;5056200;28;20410;-77
2022/11/12 12:23:06;;;;;;;9.85;5.15;;;11.20;99.90;;;;;;5056407;28;20074;-74
2022/11/12 12:25:40;;;;;;;6.90;3.95;;;11.30;99.90;;;;;;5056390;28;20391;-73
2022/11/12 12:28:36;;;;;;;10.10;4.43;;;11.40;99.90;;;;;;5059570;28;20021;-72
2022/11/12 12:31:18;;;;;;;6.20;3.83;;;11.60;99.90;;;;;;5059888;28;20021;-72
2022/11/12 12:33:58;;;;;;;7.70;3.80;;;11.70;99.90;;;;;;5059511;28;20049;-71
2022/11/12 12:36:40;;;;;;;10.13;4.82;;;11.80;99.90;;;;;;5059346;28;20328;-72
2022/11/12 12:39:25;;;;;;;7.10;4.50;;;11.90;99.90;;;;;;5059617;28;20025;-74
2022/11/12 12:42:14;;;;;;;8.75;4.75;;;12.00;99.90;;;;;;5059584;28;20068;-75
2022/11/12 12:45:00;;;;;;;7.38;3.83;;;12.10;99.90;;;;;;5059221;28;20021;-75
2022/11/12 12:47:36;;;;;;;6.90;3.90;;;12.10;99.90;;;;;;5059386;28;20028;-74
2022/11/12 12:50:07;;;;;;;;;;;12.20;99.90;;;;;;5059587;28;20417;-75
2022/11/12 12:53:16;;;;;;;8.52;3.58;;;12.20;99.90;;;;;;5059178;28;19912;-76
2022/11/12 12:55:46;;;;;;;9.10;3.60;;;12.30;99.90;;;;;;5059401;28;20021;-76
2022/11/12 12:58:26;;;;;;;9.75;4.07;;;12.30;99.90;;;;;;5059211;28;20032;-76
2022/11/12 13:01:19;;;;;;;5.53;3.70;;;12.40;99.90;;;;;;5057950;28;20102;-76
2022/11/12 13:03:53;;;;;;;6.60;3.75;;;12.40;99.90;;;;;;5075958;28;20123;-76
2022/11/12 13:06:26;;;;;;;7.15;4.00;;;12.40;99.90;;;;;;5079407;28;20020;-76
2022/11/12 13:09:05;;;;;;;7.88;4.60;;;12.50;99.90;;;;;;5079004;28;20021;-75
2022/11/12 13:14:37;;;;;;;12.77;7.85;;;12.50;99.90;;;;;;5078755;28;20035;-75
2022/11/12 13:17:09;;;;;;;12.77;5.00;;;12.50;99.90;;;;;;5079067;28;20035;-77
2022/11/12 13:20:06;;;;;;;16.27;6.85;;;12.50;99.90;;;;;;5080656;28;20075;-75
2022/11/12 13:22:37;;;;;;;9.57;4.10;;;12.50;99.90;;;;;;5079051;28;20055;-76
2022/11/12 13:25:11;;;;;;;35.67;14.57;;;12.50;99.90;;;;;;5078681;28;20031;-74
2022/11/12 13:27:44;;;;;;;20.02;8.20;;;12.40;99.90;;;;;;5078978;28;20021;-76
2022/11/12 13:30:35;;;;;;;106.20;40.58;;;12.40;99.90;;;;;;5078696;28;20028;-77
2022/11/12 13:33:23;;;;;;;15.25;5.95;;;12.40;99.90;;;;;;5078472;28;20025;-75
2022/11/12 13:35:50;;;;;;;6.28;4.28;;;12.40;99.90;;;;;;5078745;28;20460;-75
2022/11/12 13:38:19;;;;;;;6.07;3.30;;;12.40;99.90;;;;;;5077529;28;20056;-74
2022/11/12 13:40:53;;;;;;;6.70;3.85;;;12.30;99.90;;;;;;5078300;28;20020;-75
2022/11/12 13:43:37;;;;;;;6.47;3.47;;;12.30;99.90;;;;;;5060454;28;20061;-75
2022/11/12 13:46:11;;;;;;;5.43;3.42;;;12.20;99.90;;;;;;5078255;28;20024;-74
2022/11/12 13:48:44;;;;;;;7.82;3.88;;;12.20;99.90;;;;;;5078437;28;20029;-75
2022/11/12 13:51:33;;;;;;;6.47;3.45;;;12.20;99.90;;;;;;5078062;28;20020;-75